createdAt,value
2019-03-19T00:01:56.379Z,100.00
2019-03-19T00:04:24.759Z,100.00
2019-03-19T00:06:53.135Z,100.00
2019-03-19T00:09:21.482Z,100.00
2019-03-19T00:11:50.726Z,100.00
2019-03-19T00:14:19.096Z,100.00
2019-03-19T00:16:47.456Z,100.00
2019-03-19T00:19:15.876Z,100.00
2019-03-19T00:21:44.209Z,100.00
2019-03-19T00:24:12.582Z,100.00
2019-03-19T00:26:40.928Z,100.00
2019-03-19T00:29:09.261Z,100.00
2019-03-19T00:31:37.600Z,100.00
2019-03-19T00:34:05.961Z,100.00
2019-03-19T00:36:34.348Z,100.00
2019-03-19T00:39:02.695Z,100.00
2019-03-19T00:41:31.053Z,100.00
2019-03-19T00:43:59.403Z,100.00
2019-03-19T00:46:27.755Z,100.00
2019-03-19T00:48:56.173Z,100.00
2019-03-19T00:51:24.528Z,100.00
2019-03-19T00:53:52.869Z,100.00
2019-03-19T00:56:21.207Z,100.00
2019-03-19T00:58:49.568Z,100.00
2019-03-19T01:01:17.988Z,100.00
2019-03-19T01:03:46.393Z,100.00
2019-03-19T01:06:14.796Z,100.00
2019-03-19T01:08:43.148Z,100.00
2019-03-19T01:11:11.485Z,100.00
2019-03-19T01:13:39.830Z,100.00
2019-03-19T01:16:08.173Z,100.00
2019-03-19T01:22:48.414Z,100.00
2019-03-19T01:25:17.012Z,100.00
2019-03-19T01:27:45.340Z,100.00
2019-03-19T01:30:15.601Z,100.00
2019-03-19T01:32:43.948Z,100.00
2019-03-19T01:35:12.387Z,100.00
2019-03-19T01:37:40.768Z,100.00
2019-03-19T01:40:11.794Z,100.00
2019-03-19T01:42:40.135Z,100.00
2019-03-19T01:45:09.299Z,100.00
2019-03-19T01:47:37.728Z,100.00
2019-03-19T01:50:06.777Z,100.00
2019-03-19T01:52:35.169Z,100.00
2019-03-19T01:55:03.534Z,100.00
2019-03-19T01:57:32.219Z,100.00
2019-03-19T02:00:00.635Z,100.00
2019-03-19T02:02:28.940Z,100.00
2019-03-19T02:04:57.287Z,100.00
2019-03-19T02:07:26.585Z,100.00
2019-03-19T02:09:54.948Z,100.00
2019-03-19T02:12:23.299Z,100.00
2019-03-19T02:14:51.648Z,100.00
2019-03-19T02:17:19.992Z,100.00
2019-03-19T02:19:48.332Z,100.00
2019-03-19T02:22:16.681Z,100.00
2019-03-19T02:24:45.121Z,100.00
2019-03-19T02:27:13.464Z,100.00
2019-03-19T02:29:41.842Z,100.00
2019-03-19T02:32:10.234Z,100.00
2019-03-19T02:37:13.882Z,100.00
2019-03-19T02:39:42.272Z,100.00
2019-03-19T02:42:10.761Z,100.00
2019-03-19T02:44:39.117Z,100.00
2019-03-19T02:47:07.465Z,100.00
2019-03-19T02:49:36.877Z,100.00
2019-03-19T02:52:05.856Z,100.00
2019-03-19T02:54:34.302Z,100.00
2019-03-19T02:57:02.669Z,100.00
2019-03-19T02:59:31.150Z,100.00
2019-03-19T03:01:59.487Z,100.00
2019-03-19T03:04:27.915Z,100.00
2019-03-19T03:06:56.244Z,100.00
2019-03-19T03:09:24.608Z,100.00
2019-03-19T03:11:52.942Z,100.00
2019-03-19T03:14:21.281Z,100.00
2019-03-19T03:16:49.633Z,100.00
2019-03-19T03:19:18.000Z,100.00
2019-03-19T03:21:46.327Z,100.00
2019-03-19T03:24:14.661Z,100.00
2019-03-19T03:26:48.319Z,100.00
2019-03-19T03:29:11.430Z,100.00
2019-03-19T03:31:39.818Z,100.00
2019-03-19T03:34:08.323Z,100.00
2019-03-19T03:36:36.685Z,100.00
2019-03-19T03:39:05.065Z,100.00
2019-03-19T03:41:33.397Z,100.00
2019-03-19T03:44:01.866Z,100.00
2019-03-19T03:46:30.190Z,100.00
2019-03-19T03:48:58.544Z,100.00
2019-03-19T03:51:26.907Z,100.00
2019-03-19T03:53:55.348Z,100.00
2019-03-19T03:56:23.672Z,100.00
2019-03-19T03:59:00.591Z,100.00
2019-03-19T04:01:20.385Z,100.00
2019-03-19T04:03:48.775Z,100.00
2019-03-19T04:08:54.473Z,100.00
2019-03-19T04:16:31.276Z,100.00
2019-03-19T04:18:59.631Z,100.00
2019-03-19T04:21:27.965Z,99.68
2019-03-19T04:23:56.363Z,99.35
2019-03-19T04:26:24.809Z,99.44
2019-03-19T04:28:53.173Z,99.80
2019-03-19T04:31:21.510Z,99.12
2019-03-19T04:33:49.904Z,98.66
2019-03-19T04:36:18.266Z,98.87
2019-03-19T04:38:46.611Z,99.25
2019-03-19T04:46:23.446Z,98.36
2019-03-19T04:48:51.831Z,98.33
2019-03-19T04:51:20.244Z,98.34
2019-03-19T04:53:48.616Z,98.34
2019-03-19T04:56:16.984Z,97.98
2019-03-19T04:58:46.218Z,98.01
2019-03-19T05:01:14.564Z,97.85
2019-03-19T05:03:42.893Z,98.43
2019-03-19T05:08:45.536Z,99.62
2019-03-19T05:11:13.889Z,99.78
2019-03-19T05:13:42.216Z,99.71
2019-03-19T05:16:10.605Z,98.95
2019-03-19T05:18:39.046Z,99.27
2019-03-19T05:21:07.414Z,99.15
2019-03-19T05:23:35.766Z,98.88
2019-03-19T05:26:04.113Z,99.06
2019-03-19T05:31:06.751Z,100.00
2019-03-19T05:33:35.081Z,100.00
2019-03-19T05:36:03.420Z,100.00
2019-03-19T05:38:32.727Z,100.00
2019-03-19T05:41:01.101Z,100.00
2019-03-19T05:43:29.490Z,100.00
2019-03-19T05:45:57.867Z,100.00
2019-03-19T05:48:26.289Z,100.00
2019-03-19T05:53:31.860Z,100.00
2019-03-19T05:56:00.392Z,100.00
2019-03-19T05:58:28.753Z,100.00
2019-03-19T06:00:57.257Z,100.00
2019-03-19T06:03:25.613Z,100.00
2019-03-19T06:05:54.054Z,100.00
2019-03-19T06:08:22.388Z,100.00
2019-03-19T06:10:50.745Z,100.00
2019-03-19T06:13:19.293Z,100.00
2019-03-19T06:15:47.883Z,100.00
2019-03-19T06:18:16.216Z,100.00
2019-03-19T06:20:44.637Z,100.00
2019-03-19T06:23:13.411Z,100.00
2019-03-19T06:28:16.043Z,97.71
2019-03-19T06:30:44.367Z,96.20
2019-03-19T06:33:12.702Z,94.16
2019-03-19T06:35:42.025Z,92.89
2019-03-19T06:38:10.387Z,91.79
2019-03-19T06:40:38.761Z,90.41
2019-03-19T06:43:07.150Z,89.62
2019-03-19T06:45:35.532Z,87.65
2019-03-19T06:48:03.879Z,86.80
2019-03-19T06:50:32.219Z,88.09
2019-03-19T06:53:00.551Z,87.66
2019-03-19T06:55:28.913Z,86.41
2019-03-19T06:57:57.259Z,86.61
2019-03-19T07:00:25.596Z,85.51
2019-03-19T07:02:53.943Z,84.23
2019-03-19T07:07:56.462Z,84.01
2019-03-19T07:10:25.735Z,84.54
2019-03-19T07:12:54.072Z,83.19
2019-03-19T07:17:56.688Z,83.30
2019-03-19T07:20:25.917Z,83.93
2019-03-19T07:22:54.331Z,81.96
2019-03-19T07:25:22.677Z,83.36
2019-03-19T07:27:51.011Z,81.55
2019-03-19T07:30:23.649Z,81.70
2019-03-19T07:32:52.010Z,82.14
2019-03-19T07:35:20.339Z,81.93
2019-03-19T07:40:25.981Z,80.77
2019-03-19T07:42:54.301Z,81.02
2019-03-19T07:45:22.649Z,81.60
2019-03-19T07:47:51.033Z,79.55
2019-03-19T07:50:20.877Z,79.88
2019-03-19T07:52:49.251Z,77.28
2019-03-19T07:55:17.605Z,76.47
2019-03-19T07:57:46.081Z,75.22
2019-03-19T08:00:14.407Z,76.65
2019-03-19T08:02:43.700Z,72.78
2019-03-19T08:05:12.047Z,72.41
2019-03-19T08:07:40.389Z,70.13
2019-03-19T08:12:43.914Z,67.96
2019-03-19T08:15:13.170Z,72.83
2019-03-19T08:17:42.946Z,70.57
2019-03-19T08:20:09.859Z,72.81
2019-03-19T08:22:38.227Z,72.30
2019-03-19T08:25:08.786Z,70.85
2019-03-19T08:27:35.830Z,69.69
2019-03-19T08:30:04.187Z,71.77
2019-03-19T08:32:32.559Z,67.18
2019-03-19T08:35:00.943Z,70.21
2019-03-19T08:37:29.323Z,68.69
2019-03-19T08:39:57.668Z,65.45
2019-03-19T08:45:03.332Z,69.84
2019-03-19T08:47:31.783Z,71.31
2019-03-19T08:50:00.134Z,68.34
2019-03-19T08:52:28.480Z,70.15
2019-03-19T08:54:56.813Z,68.25
2019-03-19T08:57:25.148Z,69.39
2019-03-19T08:59:53.511Z,69.57
2019-03-19T09:02:23.000Z,71.73
2019-03-19T09:04:51.420Z,65.66
2019-03-19T09:09:40.452Z,60.65
2019-03-19T09:12:08.798Z,56.93
2019-03-19T09:14:37.147Z,51.42
2019-03-19T09:17:05.494Z,48.95
2019-03-19T09:19:33.833Z,56.72
2019-03-19T09:22:02.188Z,51.98
2019-03-19T09:24:30.579Z,51.23
2019-03-19T09:26:58.930Z,48.44
2019-03-19T09:29:27.268Z,44.41
2019-03-19T09:31:56.532Z,46.24
2019-03-19T09:34:24.885Z,39.21
2019-03-19T09:36:57.620Z,39.48
2019-03-19T09:39:22.483Z,36.61
2019-03-19T09:41:50.827Z,36.83
2019-03-19T09:44:19.181Z,38.29
2019-03-19T09:46:47.547Z,40.81
2019-03-19T09:49:15.904Z,40.67
2019-03-19T09:51:44.244Z,38.13
2019-03-19T09:54:12.610Z,42.94
2019-03-19T09:56:40.952Z,43.96
2019-03-19T09:59:09.310Z,48.39
2019-03-19T10:01:37.647Z,50.21
2019-03-19T10:04:05.999Z,51.34
2019-03-19T10:09:08.651Z,52.10
2019-03-19T10:11:36.984Z,50.29
2019-03-19T10:14:05.329Z,55.62
2019-03-19T10:16:33.680Z,53.72
2019-03-19T10:19:02.056Z,48.05
2019-03-19T10:21:30.415Z,50.65
2019-03-19T10:23:58.739Z,54.14
2019-03-19T10:26:27.089Z,55.81
2019-03-19T10:28:55.422Z,57.04
2019-03-19T10:31:24.076Z,54.05
2019-03-19T10:33:52.434Z,53.48
2019-03-19T10:36:20.782Z,51.89
2019-03-19T10:38:49.229Z,49.27
2019-03-19T10:41:17.653Z,39.97
2019-03-19T10:43:46.011Z,33.83
2019-03-19T10:46:14.960Z,30.39
2019-03-19T10:48:42.731Z,28.81
2019-03-19T10:51:11.094Z,35.68
2019-03-19T10:56:16.800Z,28.59
2019-03-19T11:01:20.565Z,24.31
2019-03-19T11:03:49.858Z,24.78
2019-03-19T11:06:18.217Z,26.33
2019-03-19T11:08:46.590Z,25.34
2019-03-19T11:11:14.953Z,24.11
2019-03-19T11:13:43.285Z,25.60
2019-03-19T11:16:11.647Z,26.55
2019-03-19T11:18:40.066Z,33.53
2019-03-19T11:21:08.380Z,32.29
2019-03-19T11:23:36.728Z,34.83
2019-03-19T11:26:05.071Z,36.91
2019-03-19T11:28:33.560Z,38.42
2019-03-19T11:31:01.922Z,39.01
2019-03-19T11:33:30.260Z,38.98
2019-03-19T11:35:58.613Z,39.44
2019-03-19T11:38:26.941Z,38.68
2019-03-19T11:40:55.292Z,37.76
2019-03-19T11:43:23.652Z,36.77
2019-03-19T11:45:52.015Z,35.36
2019-03-19T11:48:20.368Z,34.39
2019-03-19T11:50:48.759Z,33.33
2019-03-19T11:53:17.118Z,35.17
2019-03-19T11:55:45.538Z,37.29
2019-03-19T12:00:48.451Z,37.35
2019-03-19T12:03:16.854Z,35.37
2019-03-19T12:05:45.224Z,35.46
2019-03-19T12:08:13.585Z,36.26
2019-03-19T12:10:41.948Z,32.10
2019-03-19T12:13:10.291Z,27.80
2019-03-19T12:15:38.879Z,24.56
2019-03-19T12:18:07.240Z,23.13
2019-03-19T12:20:35.598Z,26.21
2019-03-19T12:23:04.144Z,26.85
2019-03-19T12:28:06.800Z,37.56
2019-03-19T12:30:35.288Z,38.15
2019-03-19T12:35:37.981Z,42.86
2019-03-19T12:38:06.326Z,43.37
2019-03-19T12:40:37.250Z,41.67
2019-03-19T12:43:03.090Z,40.69
2019-03-19T12:45:31.442Z,42.19
2019-03-19T12:50:34.124Z,36.45
2019-03-19T12:53:02.523Z,37.21
2019-03-19T12:58:10.177Z,36.54
2019-03-19T13:00:38.536Z,38.44
2019-03-19T13:03:06.897Z,37.57
2019-03-19T13:05:35.241Z,32.87
2019-03-19T13:08:03.630Z,29.66
2019-03-19T13:10:31.969Z,31.17
2019-03-19T13:13:00.355Z,33.31
2019-03-19T13:15:28.694Z,32.74
2019-03-19T13:17:57.057Z,32.59
2019-03-19T13:22:59.652Z,26.12
2019-03-19T13:25:28.120Z,23.02
2019-03-19T13:27:56.449Z,20.91
2019-03-19T13:30:28.578Z,20.68
2019-03-19T13:32:56.909Z,24.54
2019-03-19T13:35:25.262Z,24.87
2019-03-19T13:37:53.701Z,31.12
2019-03-19T13:40:22.079Z,32.52
2019-03-19T13:42:50.460Z,36.11
2019-03-19T13:45:18.852Z,39.24
2019-03-19T13:47:47.239Z,38.35
2019-03-19T13:50:16.369Z,39.74
2019-03-19T13:52:44.755Z,43.74
2019-03-19T13:55:15.071Z,38.60
2019-03-19T13:57:43.490Z,36.47
2019-03-19T14:00:13.778Z,44.30
2019-03-19T14:02:42.168Z,44.69
2019-03-19T14:05:11.435Z,41.72
2019-03-19T14:07:39.780Z,38.54
2019-03-19T14:10:12.788Z,37.80
2019-03-19T14:12:41.139Z,35.63
2019-03-19T14:17:46.744Z,34.12
2019-03-19T14:20:17.673Z,30.87
2019-03-19T14:22:46.024Z,28.09
2019-03-19T14:27:48.688Z,24.37
2019-03-19T14:30:17.025Z,22.20
2019-03-19T14:32:45.384Z,25.04
2019-03-19T14:35:13.740Z,22.55
2019-03-19T14:37:42.252Z,22.08
2019-03-19T14:42:48.828Z,21.68
2019-03-19T14:45:17.214Z,25.94
2019-03-19T14:47:45.568Z,29.39
2019-03-19T14:50:14.677Z,34.27
2019-03-19T14:52:43.995Z,33.98
2019-03-19T14:56:22.828Z,37.48
2019-03-19T14:58:51.172Z,38.51
2019-03-19T15:01:19.919Z,39.87
2019-03-19T15:03:47.890Z,37.48
2019-03-19T15:06:16.220Z,37.66
2019-03-19T15:08:44.571Z,37.60
2019-03-19T15:11:12.960Z,38.77
2019-03-19T15:13:41.361Z,39.59
2019-03-19T15:16:15.422Z,41.69
2019-03-19T15:18:44.737Z,39.44
2019-03-19T15:21:13.080Z,37.25
2019-03-19T15:23:41.451Z,33.84
2019-03-19T15:26:09.794Z,33.94
2019-03-19T15:28:38.156Z,34.77
2019-03-19T15:31:06.501Z,35.95
2019-03-19T15:33:34.857Z,35.69
2019-03-19T15:36:03.205Z,35.33
2019-03-19T15:38:31.551Z,34.24
2019-03-19T15:40:59.889Z,32.03
2019-03-19T15:43:28.245Z,32.70
2019-03-19T15:48:30.869Z,34.00
2019-03-19T15:51:00.204Z,36.09
2019-03-19T15:56:05.919Z,38.57
2019-03-19T15:58:34.356Z,39.77
2019-03-19T16:01:02.701Z,39.19
2019-03-19T16:03:31.044Z,39.70
2019-03-19T16:05:59.501Z,40.02
2019-03-19T16:08:27.860Z,40.27
2019-03-19T16:10:56.247Z,38.97
2019-03-19T16:13:24.603Z,39.68
2019-03-19T16:15:52.966Z,42.02
2019-03-19T16:18:21.292Z,41.66
2019-03-19T16:20:49.657Z,41.63
2019-03-19T16:23:18.040Z,41.13
2019-03-19T16:25:46.414Z,41.24
2019-03-19T16:28:14.825Z,42.54
2019-03-19T16:30:43.191Z,42.38
2019-03-19T16:33:11.544Z,42.73
2019-03-19T16:35:39.890Z,43.42
2019-03-19T16:38:08.241Z,45.16
2019-03-19T16:40:36.636Z,46.13
2019-03-19T16:43:04.996Z,45.77
2019-03-19T16:45:33.358Z,46.61
2019-03-19T16:48:01.694Z,46.42
2019-03-19T16:50:30.051Z,46.59
2019-03-19T16:52:58.450Z,48.56
2019-03-19T16:55:26.960Z,49.05
2019-03-19T16:57:55.512Z,47.92
2019-03-19T17:00:25.636Z,48.50
2019-03-19T17:02:54.035Z,51.68
2019-03-19T17:05:22.377Z,50.19
2019-03-19T17:07:50.711Z,53.21
2019-03-19T17:10:29.073Z,50.83
2019-03-19T17:12:57.412Z,54.62
2019-03-19T17:15:26.763Z,54.26
2019-03-19T17:17:55.182Z,54.95
2019-03-19T17:20:23.522Z,57.80
2019-03-19T17:22:51.893Z,65.46
2019-03-19T17:25:21.736Z,59.24
2019-03-19T17:27:50.107Z,61.72
2019-03-19T17:30:33.771Z,65.12
2019-03-19T17:33:04.104Z,64.04
2019-03-19T17:35:32.449Z,68.62
2019-03-19T17:38:00.791Z,67.36
2019-03-19T17:40:29.162Z,67.64
2019-03-19T17:42:57.494Z,71.28
2019-03-19T17:45:25.850Z,67.37
2019-03-19T17:47:55.129Z,74.20
2019-03-19T17:50:28.100Z,77.58
2019-03-19T17:52:56.609Z,76.39
2019-03-19T17:55:24.826Z,73.92
2019-03-19T17:57:53.159Z,76.45
2019-03-19T18:00:21.502Z,72.72
2019-03-19T18:02:49.866Z,71.95
2019-03-19T18:05:18.249Z,74.70
2019-03-19T18:07:46.580Z,75.94
2019-03-19T18:10:14.962Z,78.13
2019-03-19T18:12:43.303Z,72.56
2019-03-19T18:15:12.561Z,77.88
2019-03-19T18:17:40.924Z,77.22
2019-03-19T18:22:43.646Z,79.56
2019-03-19T18:25:14.906Z,77.34
2019-03-19T18:27:43.296Z,75.78
2019-03-19T18:30:16.865Z,77.18
2019-03-19T18:32:45.247Z,79.50
2019-03-19T18:35:14.626Z,74.27
2019-03-19T18:37:43.001Z,80.12
2019-03-19T18:42:46.556Z,81.57
2019-03-19T18:45:15.800Z,83.19
2019-03-19T18:47:44.183Z,81.69
2019-03-19T18:50:22.269Z,81.05
2019-03-19T18:52:50.664Z,78.21
2019-03-19T18:55:19.035Z,81.33
2019-03-19T18:57:47.415Z,83.23
2019-03-19T19:00:17.338Z,83.90
2019-03-19T19:02:50.298Z,83.55
2019-03-19T19:05:15.608Z,83.18
2019-03-19T19:07:44.001Z,84.81
2019-03-19T19:10:13.881Z,84.57
2019-03-19T19:12:42.231Z,84.96
2019-03-19T19:15:26.985Z,85.12
2019-03-19T19:17:55.369Z,85.88
2019-03-19T19:20:23.703Z,87.28
2019-03-19T19:25:36.290Z,85.34
2019-03-19T19:28:04.677Z,86.86
2019-03-19T19:30:33.021Z,85.35
2019-03-19T19:33:02.518Z,84.95
2019-03-19T19:35:29.708Z,85.72
2019-03-19T19:37:58.088Z,83.92
2019-03-19T19:40:26.486Z,86.31
2019-03-19T19:42:54.832Z,85.89
2019-03-19T19:45:23.178Z,85.68
2019-03-19T19:47:51.578Z,83.67
2019-03-19T19:50:19.977Z,84.23
2019-03-19T19:52:49.269Z,83.14
2019-03-19T19:55:17.705Z,83.46
2019-03-19T19:57:46.192Z,87.66
2019-03-19T20:00:19.062Z,87.88
2019-03-19T20:02:47.449Z,87.89
2019-03-19T20:05:15.773Z,84.79
2019-03-19T20:07:44.118Z,84.75
2019-03-19T20:10:14.785Z,83.11
2019-03-19T20:12:43.170Z,83.02
2019-03-19T20:15:11.553Z,83.42
2019-03-19T20:17:39.892Z,85.34
2019-03-19T20:20:08.258Z,86.46
2019-03-19T20:22:36.658Z,85.25
2019-03-19T20:25:05.014Z,86.01
2019-03-19T20:27:33.413Z,87.96
2019-03-19T20:30:01.776Z,86.41
2019-03-19T20:32:30.122Z,86.84
2019-03-19T20:34:58.484Z,86.43
2019-03-19T20:37:26.842Z,89.04
2019-03-19T20:39:55.212Z,88.39
2019-03-19T20:42:23.553Z,89.98
2019-03-19T20:44:52.019Z,90.28
2019-03-19T20:47:20.345Z,90.54
2019-03-19T20:49:48.700Z,90.10
2019-03-19T20:52:17.082Z,89.57
2019-03-19T20:54:45.521Z,91.53
2019-03-19T20:57:13.964Z,91.09
2019-03-19T20:59:42.396Z,92.38
2019-03-19T21:02:10.798Z,92.37
2019-03-19T21:04:39.207Z,91.09
2019-03-19T21:07:07.658Z,91.19
2019-03-19T21:09:36.149Z,90.83
2019-03-19T21:12:04.534Z,90.57
2019-03-19T21:14:33.027Z,90.63
2019-03-19T21:17:01.375Z,88.33
2019-03-19T21:19:29.760Z,85.51
2019-03-19T21:22:00.449Z,85.89
2019-03-19T21:24:26.622Z,89.69
2019-03-19T21:26:54.954Z,90.73
2019-03-19T21:31:57.557Z,87.79
2019-03-19T21:34:25.939Z,86.26
2019-03-19T21:36:54.330Z,87.26
2019-03-19T21:39:22.702Z,88.02
2019-03-19T21:41:51.094Z,87.92
2019-03-19T21:44:19.469Z,88.79
2019-03-19T21:46:47.863Z,88.55
2019-03-19T21:49:16.246Z,89.33
2019-03-19T21:51:45.609Z,88.21
2019-03-19T21:54:13.990Z,84.83
2019-03-19T21:56:42.376Z,87.62
2019-03-19T21:59:10.725Z,88.16
2019-03-19T22:01:39.308Z,90.87
2019-03-19T22:04:07.665Z,90.69
2019-03-19T22:06:36.070Z,92.60
2019-03-19T22:09:04.483Z,92.48
2019-03-19T22:11:32.849Z,92.70
2019-03-19T22:14:01.226Z,90.87
2019-03-19T22:16:29.604Z,91.46
2019-03-19T22:18:58.087Z,92.20
2019-03-19T22:21:26.442Z,90.84
2019-03-19T22:23:54.843Z,92.64
2019-03-19T22:26:23.177Z,92.46
2019-03-19T22:28:52.420Z,93.03
2019-03-19T22:31:22.683Z,92.34
2019-03-19T22:33:51.071Z,92.61
2019-03-19T22:36:19.478Z,93.30
2019-03-19T22:38:47.943Z,93.44
2019-03-19T22:42:17.357Z,90.59
2019-03-19T22:44:45.729Z,89.48
2019-03-19T22:47:14.110Z,89.65
2019-03-19T22:49:42.581Z,88.15
2019-03-19T22:54:45.231Z,90.93
2019-03-19T22:57:13.569Z,91.42
2019-03-19T22:59:41.921Z,92.12
2019-03-19T23:02:11.217Z,91.86
2019-03-19T23:04:39.586Z,92.32
2019-03-19T23:09:42.168Z,91.16
2019-03-19T23:12:10.507Z,89.20
2019-03-19T23:14:38.877Z,87.48
2019-03-19T23:17:07.263Z,87.59
2019-03-19T23:19:36.530Z,87.61
2019-03-19T23:22:04.927Z,88.91
2019-03-19T23:24:33.257Z,90.79
2019-03-19T23:27:01.626Z,91.33
2019-03-19T23:29:30.092Z,91.86
2019-03-19T23:31:58.583Z,91.40
2019-03-19T23:34:26.931Z,88.19
2019-03-19T23:36:55.306Z,86.65
2019-03-19T23:39:23.709Z,87.13
2019-03-19T23:41:52.102Z,89.92
2019-03-19T23:44:20.466Z,92.13
2019-03-19T23:46:48.814Z,92.82
2019-03-19T23:49:17.164Z,92.75
2019-03-19T23:51:45.554Z,88.66
2019-03-19T23:56:50.124Z,90.68
2019-03-19T23:59:18.471Z,92.41
